Portada
METAR-TAF:

METAR-TAF

Aeroports :

McGuire Air Force Base

Wrightstown, Nova Jersey, Estats Units d'Amèrica

latitud: 40-01N, longitud: 074-36W, altitud: 41 m

Observació

L'informe es va fer fa 16 minuts, a les 03:56 UTC
Vent calma
Temperatura 23°C
Humitat 83%
Pressió 1017 hPa
Visibilitat: 16.1 km
Cel clar

METAR: KWRI 270356Z AUTO 00000KT 10SM CLR 23/20 A3004 RMK AO2 SLPNO T02340195 VISNO RWY06 $

Hora: 00:12 (04:12 UTC)

Pronòstic

L'informe es va fer fa 2 hores i 12 minuts, a les 02:00 UTC
Pronòstic vàlid del 27 a les 02 UTC al 28 a les 08 UTC
Vent 6 kt amb direcció variable
Visibilitat 10 km o més
Escasses núvols a una alçada de 10000 ft
Núvols disperses a una alçada de 25000 ft
Evolucionant progressivament
l' 27 a les 06 UTC al 27 a les 07 UTC
Vent 5 kt del Nord/Nord-Oest
Visibilitat 10 km o més
Cel clar

TAF: KWRI 270200Z 2702/2808 VRB06KT 9999 FEW100 SCT250 QNH3003INS BECMG 2706/2707 33005KT 9999 SKC QNH3007INS TX31/2719Z TN18/2710Z

Observacions i pronòstics meteorològics de més de 4000 aeroports (METAR i TAF).

Les estacions disponibles són els punts grocs i vermells al mapa.

Posi el ratolí al punt desitjat per veure el nom de l'estació.

Feu clic per veure les observacions i els pronòstics meteorològics.

Per canviar el mapa: feu clic els botons verds amb una creu de color negre per apropar; al botó verd amb un guió per allunyar la imatge; o en les fletxes verdes per a mapes adjacents.


METAR-TAF: